createdAt,value
2022-08-30T00:01:59.058Z,3.78
2022-08-30T00:05:01.846Z,4.65
2022-08-30T00:08:04.274Z,4.22
2022-08-30T00:11:10.074Z,4.30
2022-08-30T00:14:15.320Z,6.30
2022-08-30T00:17:19.468Z,6.03
2022-08-30T00:23:26.886Z,4.47
2022-08-30T00:26:28.983Z,5.43
2022-08-30T00:29:31.209Z,6.00
2022-08-30T00:32:33.317Z,4.25
2022-08-30T00:35:38.832Z,4.88
2022-08-30T00:38:40.953Z,5.00
2022-08-30T00:41:43.011Z,5.03
2022-08-30T00:44:45.683Z,13.02
2022-08-30T00:47:48.149Z,5.22
2022-08-30T00:51:05.252Z,5.10
2022-08-30T00:54:08.027Z,4.97
2022-08-30T00:57:12.283Z,5.05
2022-08-30T01:03:18.050Z,5.00
2022-08-30T01:06:20.307Z,4.00
2022-08-30T01:09:23.227Z,4.40
2022-08-30T01:12:25.487Z,5.30
2022-08-30T01:15:27.831Z,5.10
2022-08-30T01:18:30.155Z,4.68
2022-08-30T01:21:50.168Z,4.75
2022-08-30T01:24:54.856Z,4.68
2022-08-30T01:28:05.247Z,5.18
2022-08-30T01:31:08.615Z,5.07
2022-08-30T01:34:10.979Z,6.15
2022-08-30T01:37:13.132Z,6.05
2022-08-30T01:40:19.176Z,5.28
2022-08-30T01:43:22.370Z,4.82
2022-08-30T01:46:27.881Z,5.90
2022-08-30T01:49:30.543Z,5.38
2022-08-30T01:52:32.773Z,5.57
2022-08-30T01:55:35.034Z,5.18
2022-08-30T01:58:38.559Z,5.82
2022-08-30T02:01:41.206Z,5.78
2022-08-30T02:04:44.762Z,6.10
2022-08-30T02:07:46.901Z,5.70
2022-08-30T02:10:49.003Z,5.03
2022-08-30T02:13:51.332Z,6.25
2022-08-30T02:16:53.412Z,5.55
2022-08-30T02:19:55.657Z,6.15
2022-08-30T02:23:00.842Z,5.47
2022-08-30T02:26:04.021Z,5.82
2022-08-30T02:29:06.797Z,4.68
2022-08-30T02:32:08.862Z,6.68
2022-08-30T02:35:10.962Z,6.30
2022-08-30T02:38:13.880Z,5.90
2022-08-30T02:41:16.939Z,6.07
2022-08-30T02:44:19.064Z,5.03
2022-08-30T02:47:21.219Z,5.10
2022-08-30T02:50:25.372Z,5.85
2022-08-30T02:53:27.389Z,4.90
2022-08-30T02:56:29.562Z,5.60
2022-08-30T02:59:32.204Z,6.20
2022-08-30T03:02:34.731Z,6.97
2022-08-30T03:05:37.922Z,7.85
2022-08-30T03:08:42.149Z,8.27
2022-08-30T03:11:45.659Z,6.20
2022-08-30T03:14:48.539Z,5.97
2022-08-30T03:17:50.586Z,6.97
2022-08-30T03:20:54.088Z,8.45
2022-08-30T03:23:57.270Z,6.45
2022-08-30T03:26:59.435Z,6.20
2022-08-30T03:30:01.835Z,5.93
2022-08-30T03:33:04.569Z,4.50
2022-08-30T03:36:10.316Z,5.80
2022-08-30T03:39:12.545Z,5.50
2022-08-30T03:42:16.383Z,5.05
2022-08-30T03:45:19.708Z,6.88
2022-08-30T03:48:21.915Z,5.68
2022-08-30T03:51:25.019Z,6.10
2022-08-30T03:54:27.274Z,7.03
2022-08-30T03:57:29.744Z,6.00
2022-08-30T04:00:33.356Z,6.07
2022-08-30T04:03:37.621Z,7.03
2022-08-30T04:06:39.839Z,7.80
2022-08-30T04:09:42.142Z,7.55
2022-08-30T04:12:48.866Z,7.32
2022-08-30T04:16:02.730Z,5.53
2022-08-30T04:19:04.875Z,6.75
2022-08-30T04:22:07.267Z,5.90
2022-08-30T04:25:15.903Z,6.50
2022-08-30T04:28:18.203Z,6.00
2022-08-30T04:31:20.914Z,6.72
2022-08-30T04:34:23.095Z,5.85
2022-08-30T04:37:25.521Z,7.15
2022-08-30T04:40:29.240Z,6.85
2022-08-30T04:43:31.419Z,6.18
2022-08-30T04:46:36.172Z,8.45
2022-08-30T04:49:46.695Z,7.07
2022-08-30T04:52:49.221Z,6.47
2022-08-30T04:55:51.317Z,7.22
2022-08-30T04:58:54.900Z,6.57
2022-08-30T05:01:57.025Z,5.75
2022-08-30T05:05:17.505Z,5.78
2022-08-30T05:08:24.608Z,6.65
2022-08-30T05:11:27.581Z,6.43
2022-08-30T05:14:29.644Z,6.07
2022-08-30T05:17:31.718Z,5.93
2022-08-30T05:20:35.276Z,5.20
2022-08-30T05:23:38.583Z,6.78
2022-08-30T05:26:41.119Z,6.40
2022-08-30T05:29:43.614Z,6.90
2022-08-30T05:32:45.848Z,6.60
2022-08-30T05:35:47.912Z,5.57
2022-08-30T05:38:50.666Z,6.18
2022-08-30T05:41:57.651Z,5.28
2022-08-30T05:44:59.750Z,5.55
2022-08-30T05:48:02.001Z,5.95
2022-08-30T05:51:04.331Z,5.78
2022-08-30T05:54:06.679Z,6.57
2022-08-30T05:57:08.839Z,5.47
2022-08-30T06:00:18.120Z,7.35
2022-08-30T06:03:20.303Z,7.93
2022-08-30T06:06:23.012Z,5.75
2022-08-30T06:09:25.081Z,5.78
2022-08-30T06:12:27.324Z,5.93
2022-08-30T06:15:29.471Z,5.68
2022-08-30T06:18:31.730Z,4.80
2022-08-30T06:21:36.124Z,5.20
2022-08-30T06:24:56.530Z,4.85
2022-08-30T06:27:59.871Z,4.78
2022-08-30T06:31:07.271Z,5.20
2022-08-30T06:34:09.448Z,4.75
2022-08-30T06:37:11.482Z,5.50
2022-08-30T06:40:14.390Z,5.85
2022-08-30T06:43:16.484Z,4.70
2022-08-30T06:46:27.813Z,6.55
2022-08-30T06:49:29.972Z,5.68
2022-08-30T06:52:33.033Z,4.85
2022-08-30T06:55:37.978Z,5.10
2022-08-30T06:58:41.423Z,4.67
2022-08-30T07:01:43.942Z,4.55
2022-08-30T07:04:46.824Z,7.10
2022-08-30T07:07:49.100Z,5.05
2022-08-30T07:10:54.734Z,4.47
2022-08-30T07:13:57.807Z,4.43
2022-08-30T07:16:59.964Z,3.83
2022-08-30T07:20:03.179Z,3.25
2022-08-30T07:23:05.707Z,3.58
2022-08-30T07:26:11.978Z,3.70
2022-08-30T07:29:14.623Z,3.53
2022-08-30T07:32:17.027Z,3.67
2022-08-30T07:38:22.278Z,3.30
2022-08-30T07:41:30.391Z,3.88
2022-08-30T07:44:32.499Z,3.92
2022-08-30T07:47:34.956Z,3.72
2022-08-30T07:50:37.456Z,3.15
2022-08-30T07:53:39.822Z,3.47
2022-08-30T07:56:41.891Z,3.15
2022-08-30T07:59:44.406Z,3.47
2022-08-30T08:02:46.573Z,3.03
2022-08-30T08:05:48.850Z,3.42
2022-08-30T08:08:51.516Z,2.97
2022-08-30T08:11:55.559Z,3.33
2022-08-30T08:14:57.760Z,3.10
2022-08-30T08:17:59.935Z,3.60
2022-08-30T08:21:02.492Z,3.33
2022-08-30T08:24:05.407Z,2.67
2022-08-30T08:27:07.581Z,3.42
2022-08-30T08:30:10.283Z,4.13
2022-08-30T08:33:14.342Z,3.10
2022-08-30T08:36:16.491Z,4.43
2022-08-30T08:39:19.027Z,3.80
2022-08-30T08:43:01.616Z,3.55
2022-08-30T08:46:18.894Z,3.83
2022-08-30T08:49:21.466Z,3.60
2022-08-30T08:52:59.619Z,4.93
2022-08-30T08:56:12.229Z,2.10
2022-08-30T08:59:16.292Z,3.55
2022-08-30T09:02:34.470Z,2.28
2022-08-30T09:05:40.002Z,2.95
2022-08-30T09:08:43.083Z,4.13
2022-08-30T09:11:48.199Z,11.27
2022-08-30T09:14:58.926Z,3.38
2022-08-30T09:18:07.009Z,4.43
2022-08-30T09:21:28.142Z,4.35
2022-08-30T09:24:45.788Z,3.22
2022-08-30T09:27:50.468Z,2.55
2022-08-30T09:31:11.377Z,2.60
2022-08-30T09:34:23.091Z,2.42
2022-08-30T09:37:35.963Z,2.80
2022-08-30T09:40:47.261Z,4.05
2022-08-30T09:44:06.627Z,2.53
2022-08-30T09:47:41.558Z,2.05
2022-08-30T09:50:46.452Z,2.83
2022-08-30T09:54:20.005Z,1.88
2022-08-30T09:57:46.609Z,3.55
2022-08-30T10:01:05.292Z,2.33
2022-08-30T10:04:31.886Z,4.68
2022-08-30T10:07:43.404Z,2.50
2022-08-30T10:11:21.848Z,7.55
2022-08-30T10:14:52.027Z,3.03
2022-08-30T10:18:06.916Z,3.90
2022-08-30T10:21:38.478Z,2.53
2022-08-30T10:24:50.576Z,2.63
2022-08-30T10:28:00.528Z,2.13
2022-08-30T10:31:07.933Z,2.28
2022-08-30T10:34:25.847Z,3.72
2022-08-30T10:37:31.698Z,1.95
2022-08-30T10:41:01.258Z,2.17
2022-08-30T10:44:20.578Z,1.92
2022-08-30T10:47:32.122Z,2.88
2022-08-30T10:50:44.126Z,3.20
2022-08-30T10:53:56.908Z,1.83
2022-08-30T10:57:00.097Z,2.08
2022-08-30T11:03:39.978Z,1.30
2022-08-30T11:06:52.643Z,1.42
2022-08-30T11:10:05.544Z,1.98
2022-08-30T11:13:14.031Z,3.10
2022-08-30T11:16:19.331Z,2.47
2022-08-30T11:19:38.400Z,3.35
2022-08-30T11:23:01.390Z,5.25
2022-08-30T11:26:12.178Z,1.90
2022-08-30T11:29:44.693Z,3.17
2022-08-30T11:33:25.098Z,2.88
2022-08-30T11:36:46.228Z,3.80
2022-08-30T11:39:48.982Z,2.53
2022-08-30T11:42:54.208Z,2.10
2022-08-30T11:46:24.533Z,1.65
2022-08-30T11:49:53.416Z,2.95
2022-08-30T11:53:23.492Z,2.88
2022-08-30T11:56:29.863Z,2.67
2022-08-30T12:00:11.801Z,1.98
2022-08-30T12:03:16.675Z,1.50
2022-08-30T12:06:39.524Z,1.85
2022-08-30T12:09:46.078Z,1.98
2022-08-30T12:12:50.823Z,2.83
2022-08-30T12:15:59.426Z,3.17
2022-08-30T12:19:21.870Z,2.42
2022-08-30T12:22:24.356Z,1.85
2022-08-30T12:25:35.158Z,9.60
2022-08-30T12:28:42.134Z,2.77
2022-08-30T12:31:46.999Z,2.65
2022-08-30T12:34:53.856Z,2.75
2022-08-30T12:38:02.476Z,3.10
2022-08-30T12:41:05.861Z,2.10
2022-08-30T12:44:15.525Z,2.95
2022-08-30T12:47:25.750Z,1.20
2022-08-30T12:50:33.806Z,2.60
2022-08-30T12:53:42.147Z,2.03
2022-08-30T12:56:51.045Z,2.45
2022-08-30T12:59:59.564Z,2.30
2022-08-30T13:03:24.229Z,2.13
2022-08-30T13:06:43.947Z,1.70
2022-08-30T13:09:46.620Z,2.05
2022-08-30T13:13:01.209Z,2.08
2022-08-30T13:16:35.112Z,1.85
2022-08-30T13:19:42.567Z,2.60
2022-08-30T13:23:07.661Z,1.75
2022-08-30T13:26:11.432Z,1.58
2022-08-30T13:29:19.525Z,2.85
2022-08-30T13:32:23.642Z,1.98
2022-08-30T13:35:25.773Z,2.30
2022-08-30T13:38:27.952Z,1.90
2022-08-30T13:41:34.069Z,2.10
2022-08-30T13:44:36.881Z,1.85
2022-08-30T13:47:46.897Z,2.67
2022-08-30T13:50:50.085Z,2.40
2022-08-30T13:54:02.638Z,3.95
2022-08-30T13:57:05.972Z,1.98
2022-08-30T14:00:14.850Z,2.22
2022-08-30T14:03:17.522Z,3.20
2022-08-30T14:06:32.692Z,3.25
2022-08-30T14:09:36.703Z,2.83
2022-08-30T14:12:57.473Z,3.08
2022-08-30T14:19:26.652Z,3.10
2022-08-30T14:22:28.920Z,2.05
2022-08-30T14:25:31.125Z,2.63
2022-08-30T14:28:33.346Z,1.73
2022-08-30T14:31:39.688Z,2.47
2022-08-30T14:34:41.806Z,2.88
2022-08-30T14:37:44.671Z,2.08
2022-08-30T14:40:47.292Z,1.95
2022-08-30T14:43:51.670Z,1.73
2022-08-30T14:50:00.913Z,1.67
2022-08-30T14:53:03.497Z,1.83
2022-08-30T14:56:11.562Z,2.17
2022-08-30T14:59:14.598Z,2.03
2022-08-30T15:02:18.657Z,1.67
2022-08-30T15:05:20.898Z,2.40
2022-08-30T15:08:23.890Z,2.28
2022-08-30T15:11:28.061Z,1.60
2022-08-30T15:14:32.286Z,2.05
2022-08-30T15:17:34.591Z,1.57
2022-08-30T15:20:36.900Z,2.00
2022-08-30T15:23:40.539Z,1.65
2022-08-30T15:26:44.177Z,2.92
2022-08-30T15:29:46.469Z,1.85
2022-08-30T15:32:49.354Z,2.23
2022-08-30T15:35:52.390Z,2.63
2022-08-30T15:38:55.995Z,2.45
2022-08-30T15:42:01.208Z,1.98
2022-08-30T15:45:04.581Z,2.20
2022-08-30T15:48:08.419Z,1.42
2022-08-30T15:51:11.282Z,3.33
2022-08-30T15:54:16.405Z,2.10
2022-08-30T15:57:18.723Z,1.80
2022-08-30T16:00:21.160Z,1.58
2022-08-30T16:03:23.303Z,2.38
2022-08-30T16:06:28.534Z,1.70
2022-08-30T16:09:32.608Z,1.73
2022-08-30T16:12:37.201Z,2.00
2022-08-30T16:15:40.514Z,1.25
2022-08-30T16:18:42.651Z,1.33
2022-08-30T16:21:44.959Z,1.70
2022-08-30T16:24:47.019Z,2.22
2022-08-30T16:27:50.199Z,1.65
2022-08-30T16:30:52.559Z,1.75
2022-08-30T16:33:57.358Z,1.02
2022-08-30T16:37:05.867Z,2.28
2022-08-30T16:40:11.218Z,2.17
2022-08-30T16:43:13.745Z,1.42
2022-08-30T16:46:22.836Z,2.17
2022-08-30T16:49:25.923Z,2.30
2022-08-30T16:52:28.836Z,2.58
2022-08-30T16:55:31.430Z,1.55
2022-08-30T16:58:36.502Z,2.00
2022-08-30T17:01:39.682Z,1.50
2022-08-30T17:04:42.773Z,1.57
2022-08-30T17:07:46.033Z,1.40
2022-08-30T17:10:49.801Z,1.45
2022-08-30T17:13:53.310Z,1.85
2022-08-30T17:16:57.540Z,1.40
2022-08-30T17:19:59.690Z,1.70
2022-08-30T17:23:02.097Z,1.45
2022-08-30T17:26:05.626Z,1.75
2022-08-30T17:29:08.239Z,1.48
2022-08-30T17:32:12.311Z,1.52
2022-08-30T17:35:16.034Z,1.98
2022-08-30T17:38:19.411Z,2.05
2022-08-30T17:41:21.775Z,1.77
2022-08-30T17:44:28.711Z,1.80
2022-08-30T17:47:31.000Z,1.40
2022-08-30T17:50:39.079Z,1.35
2022-08-30T17:53:43.706Z,1.55
2022-08-30T17:56:47.717Z,2.33
2022-08-30T18:02:53.250Z,1.65
2022-08-30T18:05:55.371Z,2.00
2022-08-30T18:08:58.288Z,1.48
2022-08-30T18:12:00.425Z,2.08
2022-08-30T18:15:12.305Z,1.52
2022-08-30T18:18:15.312Z,1.88
2022-08-30T18:21:19.040Z,1.30
2022-08-30T18:24:24.992Z,1.67
2022-08-30T18:27:28.311Z,1.90
2022-08-30T18:30:37.662Z,2.13
2022-08-30T18:33:42.216Z,2.08
2022-08-30T18:36:45.843Z,2.00
2022-08-30T18:39:48.591Z,1.75
2022-08-30T18:42:52.626Z,2.10
2022-08-30T18:45:55.173Z,1.83
2022-08-30T18:48:57.351Z,2.88
2022-08-30T18:52:00.004Z,1.85
2022-08-30T18:55:02.134Z,2.45
2022-08-30T18:58:07.070Z,2.90
2022-08-30T19:01:09.199Z,2.35
2022-08-30T19:04:22.355Z,1.80
2022-08-30T19:07:34.216Z,3.10
2022-08-30T19:10:39.753Z,1.77
2022-08-30T19:13:41.956Z,1.63
2022-08-30T19:16:44.570Z,2.83
2022-08-30T19:19:49.212Z,2.63
2022-08-30T19:23:09.592Z,2.58
2022-08-30T19:26:12.799Z,2.15
2022-08-30T19:29:15.574Z,2.33
2022-08-30T19:32:18.504Z,3.42
2022-08-30T19:35:21.518Z,2.17
2022-08-30T19:38:23.633Z,2.33
2022-08-30T19:41:28.499Z,2.22
2022-08-30T19:44:31.733Z,2.75
2022-08-30T19:47:33.894Z,2.10
2022-08-30T19:50:37.520Z,1.88
2022-08-30T19:53:39.655Z,2.08
2022-08-30T19:56:42.717Z,1.70
2022-08-30T19:59:45.266Z,1.88
2022-08-30T20:02:51.165Z,1.80
2022-08-30T20:05:53.541Z,2.25
2022-08-30T20:08:56.615Z,1.90
2022-08-30T20:12:00.175Z,1.58
2022-08-30T20:15:04.314Z,2.15
2022-08-30T20:18:13.311Z,1.65
2022-08-30T20:21:17.118Z,2.42
2022-08-30T20:24:19.717Z,1.65
2022-08-30T20:27:24.423Z,1.50
2022-08-30T20:33:29.639Z,2.08
2022-08-30T20:36:33.795Z,2.30
2022-08-30T20:42:41.553Z,1.35
2022-08-30T20:45:44.252Z,2.17
2022-08-30T20:48:47.024Z,1.95
2022-08-30T20:51:54.173Z,1.15
2022-08-30T20:54:56.655Z,1.20
2022-08-30T20:57:59.053Z,1.17
2022-08-30T21:01:01.231Z,1.20
2022-08-30T21:04:04.196Z,1.67
2022-08-30T21:07:06.259Z,1.05
2022-08-30T21:10:08.863Z,2.17
2022-08-30T21:13:11.057Z,2.08
2022-08-30T21:16:13.263Z,1.63
2022-08-30T21:19:15.589Z,1.58
2022-08-30T21:22:17.670Z,1.75
2022-08-30T21:25:21.185Z,1.35
2022-08-30T21:28:23.325Z,1.27
2022-08-30T21:31:27.943Z,2.50
2022-08-30T21:34:29.999Z,1.77
2022-08-30T21:37:36.227Z,1.27
2022-08-30T21:40:39.381Z,1.15
2022-08-30T21:43:41.697Z,1.77
2022-08-30T21:46:44.609Z,1.40
2022-08-30T21:49:46.770Z,1.70
2022-08-30T21:52:48.929Z,1.50
2022-08-30T21:55:52.436Z,1.40
2022-08-30T21:58:55.996Z,1.52
2022-08-30T22:01:59.247Z,2.25
2022-08-30T22:05:01.337Z,1.90
2022-08-30T22:08:04.541Z,1.33
2022-08-30T22:11:11.987Z,2.88
2022-08-30T22:14:16.277Z,2.22
2022-08-30T22:17:20.930Z,1.95
2022-08-30T22:20:27.520Z,1.75
2022-08-30T22:23:33.573Z,1.58
2022-08-30T22:26:36.609Z,1.85
2022-08-30T22:29:40.060Z,1.25
2022-08-30T22:32:42.138Z,2.03
2022-08-30T22:35:45.201Z,1.25
2022-08-30T22:38:48.936Z,2.00
2022-08-30T22:41:51.311Z,1.80
2022-08-30T22:44:53.347Z,1.73
2022-08-30T22:47:56.121Z,1.73
2022-08-30T22:50:58.197Z,1.10
2022-08-30T22:54:01.368Z,1.70
2022-08-30T22:57:03.612Z,0.98
2022-08-30T23:00:15.563Z,1.63
2022-08-30T23:03:18.761Z,1.42
2022-08-30T23:06:21.649Z,1.95
2022-08-30T23:09:26.540Z,1.52
2022-08-30T23:12:28.726Z,1.52
2022-08-30T23:15:31.270Z,1.20
2022-08-30T23:18:38.888Z,1.50
2022-08-30T23:25:01.671Z,1.23
2022-08-30T23:28:22.717Z,1.50
2022-08-30T23:31:44.180Z,2.22
2022-08-30T23:35:04.991Z,1.63
2022-08-30T23:38:25.552Z,1.65
2022-08-30T23:41:45.968Z,1.90
2022-08-30T23:45:06.635Z,1.35
2022-08-30T23:48:27.263Z,1.95
2022-08-30T23:51:47.870Z,2.20
2022-08-30T23:55:08.571Z,1.60
2022-08-30T23:58:29.358Z,1.85
